aviador You're here:

KWLD Decoded Metar

WINFIELD/ARKANSA in KS, USA
Report Time2018-05-23 15:54:00
UTC Time2018-05-23 16:31:49
Flight Rules vfr VFR
Wind210° at 06 kt
W.Decomp.*RWY 17: 5.0 kt HW 3.4 kt RCW
RWY 13: 1.7 kt HW 5.8 kt RCW
W.Rank210° ranks 19
Current wind is below 210° avg. (10.6)
Visibility9999 m
Phenomena:N/A
Clouds:N/A
Expected CloudBase > 2,000 ft AGL from Temp-Dew spread
CeilingNone
Temp27°C (ISA +14)
Dew Point22°C (74% RH)
Heat Index29.2°C
QNH1019 hPa
Density Alt2,943 ft
Elevation1,148 ft
Report Wrong Elevation
Raw Report
KWLD 231554Z AUTO 21006KT 10SM CLR 27/22 A3010 RMK AO2 SLP181
T02720217=

Extra information for KWLD:More info

Metar Taf Metar & Taf Last 4 Metars F.Rules Stats Wind Profile Meteogram Temp Stats Airport Information Weather charts Add Link Nearby VenuesMetar ALERT Operation Metar Decoded Social comments

AIRNAV info for KWLD